sensor_id;sensor_type;location;lat;lon;timestamp;pressure;altitude;pressure_sealevel;temperature;humidity
47154;BME280;32907;41.412;2.164;2023-04-04T00:00:52;100267.75;;;19.10;39.91
47154;BME280;32907;41.412;2.164;2023-04-04T00:03:21;100291.44;;;19.28;39.77
47154;BME280;32907;41.412;2.164;2023-04-04T00:05:49;100279.00;;;19.22;39.58
47154;BME280;32907;41.412;2.164;2023-04-04T00:08:18;100292.25;;;19.29;39.90
47154;BME280;32907;41.412;2.164;2023-04-04T00:10:46;100295.75;;;19.29;39.66
47154;BME280;32907;41.412;2.164;2023-04-04T00:13:13;100270.63;;;19.19;39.49
47154;BME280;32907;41.412;2.164;2023-04-04T00:15:41;100261.28;;;19.06;39.73
47154;BME280;32907;41.412;2.164;2023-04-04T00:18:09;100278.50;;;19.20;39.75
47154;BME280;32907;41.412;2.164;2023-04-04T00:20:37;100245.56;;;19.03;39.47
47154;BME280;32907;41.412;2.164;2023-04-04T00:23:05;100293.84;;;19.30;39.62
47154;BME280;32907;41.412;2.164;2023-04-04T00:25:33;100297.88;;;19.33;39.79
47154;BME280;32907;41.412;2.164;2023-04-04T00:28:02;100273.06;;;19.20;39.51
47154;BME280;32907;41.412;2.164;2023-04-04T00:30:31;100296.28;;;19.32;39.75
47154;BME280;32907;41.412;2.164;2023-04-04T00:33:01;100293.34;;;19.28;39.67
47154;BME280;32907;41.412;2.164;2023-04-04T00:35:29;100307.44;;;19.30;39.57
47154;BME280;32907;41.412;2.164;2023-04-04T00:37:57;100308.56;;;19.29;39.60
47154;BME280;32907;41.412;2.164;2023-04-04T00:40:24;100270.97;;;19.12;39.46
47154;BME280;32907;41.412;2.164;2023-04-04T00:42:55;100240.00;;;18.89;39.79
47154;BME280;32907;41.412;2.164;2023-04-04T00:45:25;100284.09;;;19.29;39.47
47154;BME280;32907;41.412;2.164;2023-04-04T00:47:54;100269.59;;;19.15;39.92
47154;BME280;32907;41.412;2.164;2023-04-04T00:50:22;100270.38;;;19.15;40.11
47154;BME280;32907;41.412;2.164;2023-04-04T00:52:50;100235.34;;;18.95;40.14
47154;BME280;32907;41.412;2.164;2023-04-04T00:55:18;100275.72;;;19.25;39.88
47154;BME280;32907;41.412;2.164;2023-04-04T00:57:46;100195.63;;;18.75;40.10
47154;BME280;32907;41.412;2.164;2023-04-04T01:00:15;100281.16;;;19.25;39.94
47154;BME280;32907;41.412;2.164;2023-04-04T01:02:45;100271.91;;;19.26;39.80
47154;BME280;32907;41.412;2.164;2023-04-04T01:05:15;100270.50;;;19.29;39.82
47154;BME280;32907;41.412;2.164;2023-04-04T01:07:43;100206.31;;;18.90;39.74
47154;BME280;32907;41.412;2.164;2023-04-04T01:10:11;100240.78;;;19.14;39.66
47154;BME280;32907;41.412;2.164;2023-04-04T01:12:40;100258.59;;;19.25;39.86
47154;BME280;32907;41.412;2.164;2023-04-04T01:15:09;100238.97;;;19.09;39.73
47154;BME280;32907;41.412;2.164;2023-04-04T01:17:40;100239.78;;;19.10;39.51
47154;BME280;32907;41.412;2.164;2023-04-04T01:20:13;100261.22;;;19.30;39.76
47154;BME280;32907;41.412;2.164;2023-04-04T01:22:54;100191.09;;;18.89;39.58
47154;BME280;32907;41.412;2.164;2023-04-04T01:25:28;100250.72;;;19.23;39.73
47154;BME280;32907;41.412;2.164;2023-04-04T01:28:03;100270.69;;;19.33;39.63
47154;BME280;32907;41.412;2.164;2023-04-04T01:30:33;100248.09;;;19.18;39.87
47154;BME280;32907;41.412;2.164;2023-04-04T01:33:18;100216.53;;;18.98;39.77
47154;BME280;32907;41.412;2.164;2023-04-04T01:36:18;100261.06;;;19.21;39.99
47154;BME280;32907;41.412;2.164;2023-04-04T01:41:32;100258.34;;;19.21;40.11
47154;BME280;32907;41.412;2.164;2023-04-04T01:44:03;100263.78;;;19.21;40.35
47154;BME280;32907;41.412;2.164;2023-04-04T01:46:32;100257.84;;;19.19;40.44
47154;BME280;32907;41.412;2.164;2023-04-04T01:49:00;100185.66;;;18.70;40.41
47154;BME280;32907;41.412;2.164;2023-04-04T01:51:32;100213.09;;;18.93;40.52
47154;BME280;32907;41.412;2.164;2023-04-04T01:54:00;100229.81;;;19.00;40.55
47154;BME280;32907;41.412;2.164;2023-04-04T01:56:28;100258.94;;;19.18;40.60
47154;BME280;32907;41.412;2.164;2023-04-04T01:58:56;100236.31;;;19.04;41.11
47154;BME280;32907;41.412;2.164;2023-04-04T02:01:24;100235.50;;;19.04;41.07
47154;BME280;32907;41.412;2.164;2023-04-04T02:03:52;100254.88;;;19.16;41.12
47154;BME280;32907;41.412;2.164;2023-04-04T02:06:20;100246.22;;;19.14;41.43
47154;BME280;32907;41.412;2.164;2023-04-04T02:08:49;100239.47;;;19.11;41.43
47154;BME280;32907;41.412;2.164;2023-04-04T02:11:18;100221.41;;;19.02;42.03
47154;BME280;32907;41.412;2.164;2023-04-04T02:13:49;100198.66;;;18.92;42.06
47154;BME280;32907;41.412;2.164;2023-04-04T02:16:18;100234.53;;;19.13;42.35
47154;BME280;32907;41.412;2.164;2023-04-04T02:18:46;100189.56;;;18.83;42.12
47154;BME280;32907;41.412;2.164;2023-04-04T02:21:14;100220.13;;;18.94;42.34
47154;BME280;32907;41.412;2.164;2023-04-04T02:23:42;100206.81;;;18.92;42.29
47154;BME280;32907;41.412;2.164;2023-04-04T02:26:10;100195.72;;;18.89;42.43
47154;BME280;32907;41.412;2.164;2023-04-04T02:28:39;100214.56;;;19.04;42.70
47154;BME280;32907;41.412;2.164;2023-04-04T02:31:09;100181.41;;;18.83;42.65
47154;BME280;32907;41.412;2.164;2023-04-04T02:33:39;100217.44;;;19.13;42.46
47154;BME280;32907;41.412;2.164;2023-04-04T02:36:09;100215.53;;;19.13;42.49
47154;BME280;32907;41.412;2.164;2023-04-04T02:38:40;100170.78;;;18.87;42.66
47154;BME280;32907;41.412;2.164;2023-04-04T02:41:09;100185.06;;;18.92;42.75
47154;BME280;32907;41.412;2.164;2023-04-04T02:43:37;100158.88;;;18.83;42.67
47154;BME280;32907;41.412;2.164;2023-04-04T02:46:07;100202.59;;;19.05;42.92
47154;BME280;32907;41.412;2.164;2023-04-04T02:48:54;100200.16;;;19.04;42.91
47154;BME280;32907;41.412;2.164;2023-04-04T02:51:22;100164.00;;;18.84;42.78
47154;BME280;32907;41.412;2.164;2023-04-04T02:53:50;100196.13;;;19.01;42.79
47154;BME280;32907;41.412;2.164;2023-04-04T02:56:23;100135.66;;;18.71;43.00
47154;BME280;32907;41.412;2.164;2023-04-04T02:58:52;100190.59;;;19.06;42.53
47154;BME280;32907;41.412;2.164;2023-04-04T03:01:19;100183.56;;;19.05;42.90
47154;BME280;32907;41.412;2.164;2023-04-04T03:03:48;100122.38;;;18.70;43.08
47154;BME280;32907;41.412;2.164;2023-04-04T03:06:17;100180.84;;;19.05;43.05
47154;BME280;32907;41.412;2.164;2023-04-04T03:08:49;100156.91;;;18.88;43.20
47154;BME280;32907;41.412;2.164;2023-04-04T03:11:18;100142.34;;;18.79;43.06
47154;BME280;32907;41.412;2.164;2023-04-04T03:13:50;100161.47;;;18.93;43.11
47154;BME280;32907;41.412;2.164;2023-04-04T03:16:22;100128.03;;;18.73;43.36
47154;BME280;32907;41.412;2.164;2023-04-04T03:18:51;100146.38;;;18.82;43.08
47154;BME280;32907;41.412;2.164;2023-04-04T03:21:21;100170.84;;;19.00;43.20
47154;BME280;32907;41.412;2.164;2023-04-04T03:23:49;100167.31;;;19.00;43.09
47154;BME280;32907;41.412;2.164;2023-04-04T03:26:18;100098.19;;;18.68;43.19
47154;BME280;32907;41.412;2.164;2023-04-04T03:28:46;100117.09;;;18.79;43.11
47154;BME280;32907;41.412;2.164;2023-04-04T03:31:14;100150.94;;;19.05;42.93
47154;BME280;32907;41.412;2.164;2023-04-04T03:33:44;100150.16;;;19.05;43.18
47154;BME280;32907;41.412;2.164;2023-04-04T03:36:12;100119.47;;;18.85;43.52
47154;BME280;32907;41.412;2.164;2023-04-04T03:38:40;100148.22;;;19.05;42.93
47154;BME280;32907;41.412;2.164;2023-04-04T03:41:09;100104.97;;;18.71;43.35
47154;BME280;32907;41.412;2.164;2023-04-04T03:43:38;100150.22;;;18.99;42.94
47154;BME280;32907;41.412;2.164;2023-04-04T03:46:06;100152.66;;;19.01;43.19
47154;BME280;32907;41.412;2.164;2023-04-04T03:48:34;100138.69;;;18.89;43.20
47154;BME280;32907;41.412;2.164;2023-04-04T03:51:06;100137.00;;;18.93;43.14
47154;BME280;32907;41.412;2.164;2023-04-04T03:53:35;100123.41;;;18.74;42.97
47154;BME280;32907;41.412;2.164;2023-04-04T03:56:03;100106.97;;;18.60;42.98
47154;BME280;32907;41.412;2.164;2023-04-04T03:58:34;100066.56;;;18.35;42.91
47154;BME280;32907;41.412;2.164;2023-04-04T04:01:02;100146.38;;;18.82;42.77
47154;BME280;32907;41.412;2.164;2023-04-04T04:03:31;100151.09;;;18.95;42.93
47154;BME280;32907;41.412;2.164;2023-04-04T04:05:59;100110.22;;;18.62;42.64
47154;BME280;32907;41.412;2.164;2023-04-04T04:08:27;100119.88;;;18.73;42.50
47154;BME280;32907;41.412;2.164;2023-04-04T04:10:55;100165.19;;;18.97;42.53
47154;BME280;32907;41.412;2.164;2023-04-04T04:13:25;100167.41;;;18.95;42.36
47154;BME280;32907;41.412;2.164;2023-04-04T04:15:53;100170.19;;;18.90;41.99
47154;BME280;32907;41.412;2.164;2023-04-04T04:18:22;100151.81;;;18.82;42.12
47154;BME280;32907;41.412;2.164;2023-04-04T04:20:56;100139.34;;;18.81;41.86
47154;BME280;32907;41.412;2.164;2023-04-04T04:23:26;100099.41;;;18.57;42.43
47154;BME280;32907;41.412;2.164;2023-04-04T04:25:54;100154.47;;;18.87;42.05
47154;BME280;32907;41.412;2.164;2023-04-04T04:28:24;100156.09;;;18.88;42.02
47154;BME280;32907;41.412;2.164;2023-04-04T04:31:08;100145.78;;;18.85;42.02
47154;BME280;32907;41.412;2.164;2023-04-04T04:33:43;100108.22;;;18.49;41.78
47154;BME280;32907;41.412;2.164;2023-04-04T04:36:11;100147.78;;;18.79;41.46
47154;BME280;32907;41.412;2.164;2023-04-04T04:39:11;100101.97;;;18.49;41.50
47154;BME280;32907;41.412;2.164;2023-04-04T04:41:50;100122.47;;;18.60;41.17
47154;BME280;32907;41.412;2.164;2023-04-04T04:44:18;100106.81;;;18.52;40.90
47154;BME280;32907;41.412;2.164;2023-04-04T04:46:47;100139.47;;;18.70;40.80
47154;BME280;32907;41.412;2.164;2023-04-04T04:49:16;100128.69;;;18.60;40.32
47154;BME280;32907;41.412;2.164;2023-04-04T04:51:45;100125.16;;;18.60;40.61
47154;BME280;32907;41.412;2.164;2023-04-04T04:54:15;100145.38;;;18.78;40.61
47154;BME280;32907;41.412;2.164;2023-04-04T04:56:44;100101.69;;;18.50;40.67
47154;BME280;32907;41.412;2.164;2023-04-04T04:59:13;100166.16;;;18.87;40.77
47154;BME280;32907;41.412;2.164;2023-04-04T05:01:44;100160.72;;;18.87;40.53
47154;BME280;32907;41.412;2.164;2023-04-04T05:04:14;100172.94;;;18.85;40.53
47154;BME280;32907;41.412;2.164;2023-04-04T05:06:56;100120.63;;;18.55;40.29
47154;BME280;32907;41.412;2.164;2023-04-04T05:09:26;100105.28;;;18.45;40.15
47154;BME280;32907;41.412;2.164;2023-04-04T05:11:54;100160.31;;;18.75;40.26
47154;BME280;32907;41.412;2.164;2023-04-04T05:14:32;100160.09;;;18.71;40.39
47154;BME280;32907;41.412;2.164;2023-04-04T05:17:00;100155.53;;;18.67;40.37
47154;BME280;32907;41.412;2.164;2023-04-04T05:19:31;100168.41;;;18.80;40.40
47154;BME280;32907;41.412;2.164;2023-04-04T05:22:00;100153.63;;;18.67;40.81
47154;BME280;32907;41.412;2.164;2023-04-04T05:24:44;100178.97;;;18.82;41.01
47154;BME280;32907;41.412;2.164;2023-04-04T05:27:21;100175.16;;;18.83;40.85
47154;BME280;32907;41.412;2.164;2023-04-04T05:29:57;100170.22;;;18.85;40.81
47154;BME280;32907;41.412;2.164;2023-04-04T05:32:34;100096.97;;;18.37;40.90
47154;BME280;32907;41.412;2.164;2023-04-04T05:35:12;100171.88;;;18.86;40.72
47154;BME280;32907;41.412;2.164;2023-04-04T05:37:51;100171.94;;;18.81;40.95
47154;BME280;32907;41.412;2.164;2023-04-04T05:40:22;100141.47;;;18.60;40.77
47154;BME280;32907;41.412;2.164;2023-04-04T05:43:08;100160.72;;;18.63;40.55
47154;BME280;32907;41.412;2.164;2023-04-04T05:45:50;100176.41;;;18.71;40.65
47154;BME280;32907;41.412;2.164;2023-04-04T05:48:18;100198.00;;;18.82;40.10
47154;BME280;32907;41.412;2.164;2023-04-04T05:50:54;100177.25;;;18.67;40.57
47154;BME280;32907;41.412;2.164;2023-04-04T05:53:36;100196.88;;;18.83;40.55
47154;BME280;32907;41.412;2.164;2023-04-04T05:56:04;100190.28;;;18.70;40.40
47154;BME280;32907;41.412;2.164;2023-04-04T05:58:34;100175.91;;;18.64;40.54
47154;BME280;32907;41.412;2.164;2023-04-04T06:01:07;100174.94;;;18.55;39.86
47154;BME280;32907;41.412;2.164;2023-04-04T06:03:39;100195.22;;;18.63;39.50
47154;BME280;32907;41.412;2.164;2023-04-04T06:06:13;100190.59;;;18.63;39.64
47154;BME280;32907;41.412;2.164;2023-04-04T06:08:41;100221.97;;;18.75;39.24
47154;BME280;32907;41.412;2.164;2023-04-04T06:11:20;100206.03;;;18.68;39.30
47154;BME280;32907;41.412;2.164;2023-04-04T06:13:53;100199.09;;;18.57;39.31
47154;BME280;32907;41.412;2.164;2023-04-04T06:16:23;100168.88;;;18.39;39.07
47154;BME280;32907;41.412;2.164;2023-04-04T06:18:52;100229.91;;;18.71;39.38
47154;BME280;32907;41.412;2.164;2023-04-04T06:21:20;100171.34;;;18.36;39.07
47154;BME280;32907;41.412;2.164;2023-04-04T06:23:48;100122.25;;;18.08;38.81
47154;BME280;32907;41.412;2.164;2023-04-04T06:26:17;100220.41;;;18.68;38.89
47154;BME280;32907;41.412;2.164;2023-04-04T06:28:47;100211.22;;;18.64;38.67
47154;BME280;32907;41.412;2.164;2023-04-04T06:31:29;100237.19;;;18.76;38.95
47154;BME280;32907;41.412;2.164;2023-04-04T06:34:03;100180.50;;;18.45;39.25
47154;BME280;32907;41.412;2.164;2023-04-04T06:36:35;100198.03;;;18.53;38.98
47154;BME280;32907;41.412;2.164;2023-04-04T06:39:04;100122.88;;;18.00;39.15
47154;BME280;32907;41.412;2.164;2023-04-04T06:41:33;100251.13;;;18.93;39.44
47154;BME280;32907;41.412;2.164;2023-04-04T06:44:01;100224.47;;;18.71;39.02
47154;BME280;32907;41.412;2.164;2023-04-04T06:46:29;100230.63;;;18.77;38.49
47154;BME280;32907;41.412;2.164;2023-04-04T06:48:58;100238.75;;;18.82;38.46
47154;BME280;32907;41.412;2.164;2023-04-04T06:51:26;100186.34;;;18.52;38.46
47154;BME280;32907;41.412;2.164;2023-04-04T06:53:55;100235.81;;;18.78;38.22
47154;BME280;32907;41.412;2.164;2023-04-04T06:56:24;100264.06;;;19.01;37.95
47154;BME280;32907;41.412;2.164;2023-04-04T06:58:54;100192.50;;;18.63;38.28
47154;BME280;32907;41.412;2.164;2023-04-04T07:01:22;100236.47;;;18.89;38.14
47154;BME280;32907;41.412;2.164;2023-04-04T07:03:53;100244.63;;;18.89;37.99
47154;BME280;32907;41.412;2.164;2023-04-04T07:06:21;100259.78;;;18.95;38.36
47154;BME280;32907;41.412;2.164;2023-04-04T07:08:52;100272.72;;;19.03;38.37
47154;BME280;32907;41.412;2.164;2023-04-04T07:11:20;100175.63;;;18.42;38.43
47154;BME280;32907;41.412;2.164;2023-04-04T07:13:50;100279.19;;;19.07;38.28
47154;BME280;32907;41.412;2.164;2023-04-04T07:16:18;100256.47;;;18.98;38.54
47154;BME280;32907;41.412;2.164;2023-04-04T07:18:47;100200.66;;;18.63;38.36
47154;BME280;32907;41.412;2.164;2023-04-04T07:21:17;100264.63;;;18.98;37.93
47154;BME280;32907;41.412;2.164;2023-04-04T07:23:47;100257.38;;;18.93;37.91
47154;BME280;32907;41.412;2.164;2023-04-04T07:26:17;100252.28;;;18.87;37.72
47154;BME280;32907;41.412;2.164;2023-04-04T07:28:45;100287.00;;;19.14;37.70
47154;BME280;32907;41.412;2.164;2023-04-04T07:31:12;100286.03;;;19.05;37.92
47154;BME280;32907;41.412;2.164;2023-04-04T07:33:41;100285.22;;;19.04;37.85
47154;BME280;32907;41.412;2.164;2023-04-04T07:36:10;100300.38;;;19.10;37.80
47154;BME280;32907;41.412;2.164;2023-04-04T07:38:38;100293.31;;;19.09;37.80
47154;BME280;32907;41.412;2.164;2023-04-04T07:41:06;100274.19;;;18.95;37.97
47154;BME280;32907;41.412;2.164;2023-04-04T07:43:34;100286.06;;;18.99;38.26
47154;BME280;32907;41.412;2.164;2023-04-04T07:46:02;100315.44;;;19.21;37.64
47154;BME280;32907;41.412;2.164;2023-04-04T07:48:31;100272.28;;;18.96;37.99
47154;BME280;32907;41.412;2.164;2023-04-04T07:51:03;100299.78;;;19.13;37.88
47154;BME280;32907;41.412;2.164;2023-04-04T07:53:33;100294.13;;;19.10;37.57
47154;BME280;32907;41.412;2.164;2023-04-04T07:56:01;100323.75;;;19.30;37.75
47154;BME280;32907;41.412;2.164;2023-04-04T07:58:33;100323.47;;;19.32;38.06
47154;BME280;32907;41.412;2.164;2023-04-04T08:01:02;100332.16;;;19.34;37.76
47154;BME280;32907;41.412;2.164;2023-04-04T08:03:30;100287.94;;;19.04;37.71
47154;BME280;32907;41.412;2.164;2023-04-04T08:05:59;100278.50;;;18.96;37.83
47154;BME280;32907;41.412;2.164;2023-04-04T08:08:28;100316.50;;;19.25;37.66
47154;BME280;32907;41.412;2.164;2023-04-04T08:10:56;100315.75;;;19.20;37.92
47154;BME280;32907;41.412;2.164;2023-04-04T08:13:24;100323.25;;;19.28;38.35
47154;BME280;32907;41.412;2.164;2023-04-04T08:15:52;100342.09;;;19.43;38.51
47154;BME280;32907;41.412;2.164;2023-04-04T08:18:20;100319.38;;;19.34;38.33
47154;BME280;32907;41.412;2.164;2023-04-04T08:20:48;100336.13;;;19.41;38.97
47154;BME280;32907;41.412;2.164;2023-04-04T08:23:16;100343.69;;;19.44;38.90
47154;BME280;32907;41.412;2.164;2023-04-04T08:25:45;100322.31;;;19.38;39.08
47154;BME280;32907;41.412;2.164;2023-04-04T08:28:13;100326.06;;;19.42;39.07
47154;BME280;32907;41.412;2.164;2023-04-04T08:30:42;100341.44;;;19.51;39.25
47154;BME280;32907;41.412;2.164;2023-04-04T08:33:10;100367.88;;;19.70;39.21
47154;BME280;32907;41.412;2.164;2023-04-04T08:35:38;100328.19;;;19.45;39.00
47154;BME280;32907;41.412;2.164;2023-04-04T08:38:06;100377.09;;;19.74;38.87
47154;BME280;32907;41.412;2.164;2023-04-04T08:40:34;100364.66;;;19.68;39.52
47154;BME280;32907;41.412;2.164;2023-04-04T08:43:05;100303.06;;;19.34;39.67
47154;BME280;32907;41.412;2.164;2023-04-04T08:45:34;100337.91;;;19.51;39.41
47154;BME280;32907;41.412;2.164;2023-04-04T08:48:03;100390.53;;;19.84;39.48
47154;BME280;32907;41.412;2.164;2023-04-04T08:50:33;100351.91;;;19.63;39.63
47154;BME280;32907;41.412;2.164;2023-04-04T08:53:07;100376.28;;;19.73;39.95
47154;BME280;32907;41.412;2.164;2023-04-04T08:55:36;100398.41;;;19.86;39.83
47154;BME280;32907;41.412;2.164;2023-04-04T08:58:04;100394.59;;;19.87;40.30
47154;BME280;32907;41.412;2.164;2023-04-04T09:00:32;100400.84;;;19.87;40.47
47154;BME280;32907;41.412;2.164;2023-04-04T09:05:42;100376.78;;;19.75;41.05
47154;BME280;32907;41.412;2.164;2023-04-04T09:08:11;100355.22;;;19.60;40.98
47154;BME280;32907;41.412;2.164;2023-04-04T09:10:40;100375.44;;;19.73;41.10
47154;BME280;32907;41.412;2.164;2023-04-04T09:13:11;100389.75;;;19.83;41.19
47154;BME280;32907;41.412;2.164;2023-04-04T09:15:49;100385.16;;;19.79;41.17
47154;BME280;32907;41.412;2.164;2023-04-04T09:18:17;100403.25;;;19.89;41.17
47154;BME280;32907;41.412;2.164;2023-04-04T09:20:46;100332.06;;;19.39;41.09
47154;BME280;32907;41.412;2.164;2023-04-04T09:23:16;100407.09;;;19.88;41.30
47154;BME280;32907;41.412;2.164;2023-04-04T09:25:51;100375.75;;;19.71;41.57
47154;BME280;32907;41.412;2.164;2023-04-04T09:28:23;100396.13;;;19.74;41.47
47154;BME280;32907;41.412;2.164;2023-04-04T09:30:52;100375.81;;;19.66;41.64
47154;BME280;32907;41.412;2.164;2023-04-04T09:33:22;100421.72;;;19.92;42.04
47154;BME280;32907;41.412;2.164;2023-04-04T09:35:57;100422.25;;;19.94;42.17
47154;BME280;32907;41.412;2.164;2023-04-04T09:38:27;100416.06;;;19.88;42.05
47154;BME280;32907;41.412;2.164;2023-04-04T09:40:55;100400.69;;;19.78;42.18
47154;BME280;32907;41.412;2.164;2023-04-04T09:43:24;100396.47;;;19.67;42.12
47154;BME280;32907;41.412;2.164;2023-04-04T09:45:53;100426.44;;;19.86;42.15
47154;BME280;32907;41.412;2.164;2023-04-04T09:48:33;100407.00;;;19.74;42.19
47154;BME280;32907;41.412;2.164;2023-04-04T09:51:11;100429.97;;;19.87;42.15
47154;BME280;32907;41.412;2.164;2023-04-04T09:53:39;100434.84;;;19.90;41.89
47154;BME280;32907;41.412;2.164;2023-04-04T09:56:10;100429.91;;;19.92;41.97
47154;BME280;32907;41.412;2.164;2023-04-04T09:58:38;100415.91;;;19.79;42.00
47154;BME280;32907;41.412;2.164;2023-04-04T10:01:16;100402.94;;;19.71;42.05
47154;BME280;32907;41.412;2.164;2023-04-04T10:03:51;100390.59;;;19.60;42.55
47154;BME280;32907;41.412;2.164;2023-04-04T10:06:22;100445.88;;;19.98;42.07
47154;BME280;32907;41.412;2.164;2023-04-04T10:08:50;100429.31;;;19.95;42.20
47154;BME280;32907;41.412;2.164;2023-04-04T10:11:32;100416.28;;;19.92;42.40
47154;BME280;32907;41.412;2.164;2023-04-04T10:14:01;100455.22;;;20.11;42.28
47154;BME280;32907;41.412;2.164;2023-04-04T10:16:33;100422.84;;;19.91;41.97
47154;BME280;32907;41.412;2.164;2023-04-04T10:19:04;100459.28;;;20.14;41.69
47154;BME280;32907;41.412;2.164;2023-04-04T10:21:34;100371.25;;;19.62;41.60
47154;BME280;32907;41.412;2.164;2023-04-04T10:24:02;100391.41;;;19.61;41.44
47154;BME280;32907;41.412;2.164;2023-04-04T10:26:36;100447.34;;;20.09;41.52
47154;BME280;32907;41.412;2.164;2023-04-04T10:29:04;100430.66;;;19.97;41.84
47154;BME280;32907;41.412;2.164;2023-04-04T10:31:37;100399.34;;;19.76;41.87
47154;BME280;32907;41.412;2.164;2023-04-04T10:34:36;100454.34;;;20.16;41.06
47154;BME280;32907;41.412;2.164;2023-04-04T10:37:07;100376.94;;;19.65;40.84
47154;BME280;32907;41.412;2.164;2023-04-04T10:39:51;100447.03;;;20.11;40.87
47154;BME280;32907;41.412;2.164;2023-04-04T10:42:21;100433.38;;;19.97;40.68
47154;BME280;32907;41.412;2.164;2023-04-04T10:44:50;100414.75;;;19.86;40.95
47154;BME280;32907;41.412;2.164;2023-04-04T10:47:20;100415.03;;;19.84;41.11
47154;BME280;32907;41.412;2.164;2023-04-04T10:49:50;100459.28;;;20.14;41.04
47154;BME280;32907;41.412;2.164;2023-04-04T10:52:20;100452.19;;;20.12;41.25
47154;BME280;32907;41.412;2.164;2023-04-04T10:54:50;100446.75;;;20.12;40.89
47154;BME280;32907;41.412;2.164;2023-04-04T10:57:19;100449.84;;;20.06;40.63
47154;BME280;32907;41.412;2.164;2023-04-04T11:00:02;100440.28;;;20.08;40.12
47154;BME280;32907;41.412;2.164;2023-04-04T11:05:22;100447.63;;;20.08;40.75
47154;BME280;32907;41.412;2.164;2023-04-04T11:10:40;100384.44;;;19.73;40.98
47154;BME280;32907;41.412;2.164;2023-04-04T11:13:23;100428.75;;;19.98;41.06
47154;BME280;32907;41.412;2.164;2023-04-04T11:16:03;100457.88;;;20.16;40.63
47154;BME280;32907;41.412;2.164;2023-04-04T11:21:17;100454.41;;;20.10;40.05
47154;BME280;32907;41.412;2.164;2023-04-04T11:28:56;100366.69;;;19.57;40.20
47154;BME280;32907;41.412;2.164;2023-04-04T11:31:26;100414.78;;;19.80;39.93
47154;BME280;32907;41.412;2.164;2023-04-04T11:39:08;100415.91;;;19.79;40.18
47154;BME280;32907;41.412;2.164;2023-04-04T11:44:15;100383.44;;;19.64;39.85
47154;BME280;32907;41.412;2.164;2023-04-04T11:46:44;100401.47;;;19.79;40.51
47154;BME280;32907;41.412;2.164;2023-04-04T11:49:17;100421.88;;;20.00;40.52
47154;BME280;32907;41.412;2.164;2023-04-04T11:51:46;100421.59;;;20.02;40.50
47154;BME280;32907;41.412;2.164;2023-04-04T11:54:18;100426.97;;;20.07;40.04
47154;BME280;32907;41.412;2.164;2023-04-04T11:56:46;100367.28;;;19.73;40.20
47154;BME280;32907;41.412;2.164;2023-04-04T11:59:19;100413.88;;;20.09;40.54
47154;BME280;32907;41.412;2.164;2023-04-04T12:01:49;100399.88;;;19.97;39.96
47154;BME280;32907;41.412;2.164;2023-04-04T12:04:18;100409.84;;;20.06;40.07
47154;BME280;32907;41.412;2.164;2023-04-04T12:06:50;100391.00;;;19.91;39.85
47154;BME280;32907;41.412;2.164;2023-04-04T12:09:22;100407.91;;;20.07;39.69
47154;BME280;32907;41.412;2.164;2023-04-04T12:11:50;100374.78;;;19.81;39.52
47154;BME280;32907;41.412;2.164;2023-04-04T12:14:22;100410.41;;;20.03;39.47
47154;BME280;32907;41.412;2.164;2023-04-04T12:16:54;100415.03;;;20.03;39.34
47154;BME280;32907;41.412;2.164;2023-04-04T12:19:26;100362.88;;;19.77;39.30
47154;BME280;32907;41.412;2.164;2023-04-04T12:21:56;100401.53;;;19.98;39.70
47154;BME280;32907;41.412;2.164;2023-04-04T12:24:24;100391.81;;;19.92;39.55
47154;BME280;32907;41.412;2.164;2023-04-04T12:26:52;100409.59;;;20.03;39.31
47154;BME280;32907;41.412;2.164;2023-04-04T12:29:21;100316.97;;;19.51;39.44
47154;BME280;32907;41.412;2.164;2023-04-04T12:31:52;100403.78;;;19.91;39.53
47154;BME280;32907;41.412;2.164;2023-04-04T12:34:29;100405.84;;;19.99;39.35
47154;BME280;32907;41.412;2.164;2023-04-04T12:37:00;100398.25;;;19.96;39.01
47154;BME280;32907;41.412;2.164;2023-04-04T12:39:30;100376.69;;;19.80;38.98
47154;BME280;32907;41.412;2.164;2023-04-04T12:42:03;100351.34;;;19.66;39.29
47154;BME280;32907;41.412;2.164;2023-04-04T12:44:33;100316.28;;;19.41;39.42
47154;BME280;32907;41.412;2.164;2023-04-04T12:47:07;100376.78;;;19.75;39.69
47154;BME280;32907;41.412;2.164;2023-04-04T12:49:44;100400.84;;;19.87;39.66
47154;BME280;32907;41.412;2.164;2023-04-04T12:52:25;100397.59;;;19.85;39.73
47154;BME280;32907;41.412;2.164;2023-04-04T12:54:57;100389.94;;;19.87;39.33
47154;BME280;32907;41.412;2.164;2023-04-04T12:57:37;100331.44;;;19.47;39.44
47154;BME280;32907;41.412;2.164;2023-04-04T13:00:06;100376.19;;;19.78;38.94
47154;BME280;32907;41.412;2.164;2023-04-04T13:02:37;100338.72;;;19.51;38.50
47154;BME280;32907;41.412;2.164;2023-04-04T13:05:05;100386.41;;;19.87;38.15
47154;BME280;32907;41.412;2.164;2023-04-04T13:07:37;100391.06;;;19.86;38.05
47154;BME280;32907;41.412;2.164;2023-04-04T13:10:12;100342.47;;;19.55;37.55
47154;BME280;32907;41.412;2.164;2023-04-04T13:12:59;100388.03;;;19.88;37.73
47154;BME280;32907;41.412;2.164;2023-04-04T13:15:50;100392.38;;;19.89;37.99
47154;BME280;32907;41.412;2.164;2023-04-04T13:18:20;100381.47;;;19.89;38.21
47154;BME280;32907;41.412;2.164;2023-04-04T13:20:53;100404.91;;;19.90;38.27
47154;BME280;32907;41.412;2.164;2023-04-04T13:23:22;100366.91;;;19.79;38.48
47154;BME280;32907;41.412;2.164;2023-04-04T13:25:50;100380.47;;;19.84;38.39
47154;BME280;32907;41.412;2.164;2023-04-04T13:28:18;100343.53;;;19.60;38.24
47154;BME280;32907;41.412;2.164;2023-04-04T13:30:46;100371.56;;;19.79;38.43
47154;BME280;32907;41.412;2.164;2023-04-04T13:33:17;100397.81;;;19.89;38.59
47154;BME280;32907;41.412;2.164;2023-04-04T13:35:45;100398.06;;;19.92;44.96